Time;durP1;ratioP1;P1;durP2;ratioP2;P2;SDS_P1;SDS_P2;PMS_P1;PMS_P2;Temp;Humidity;BMP_temperature;BMP_pressure;BME280_temperature;BME280_humidity;BME280_pressure;Samples;Min_cycle;Max_cycle;Signal;HPM_P1;HPM_P2
2022/01/26 00:06:21;;;;;;;61.83;30.65;;;3.40;99.90;;;;;;5072278;28;20036;-79
2022/01/26 00:08:48;;;;;;;59.67;31.30;;;3.40;99.90;;;;;;5052040;28;20543;-80
2022/01/26 00:11:13;;;;;;;61.95;31.50;;;3.40;99.90;;;;;;5048437;28;20369;-80
2022/01/26 00:13:39;;;;;;;62.55;31.63;;;3.40;99.90;;;;;;5070849;28;20062;-72
2022/01/26 00:16:10;;;;;;;68.32;33.03;;;3.30;99.90;;;;;;5054911;28;20036;-78
2022/01/26 00:18:38;;;;;;;70.22;32.08;;;3.30;99.90;;;;;;5056507;28;20495;-80
2022/01/26 00:21:14;;;;;;;70.22;33.83;;;3.30;99.90;;;;;;5072271;28;20055;-74
2022/01/26 00:26:23;;;;;;;62.42;31.95;;;3.30;99.90;;;;;;5090777;28;20074;-80
2022/01/26 00:29:11;;;;;;;65.57;32.83;;;3.30;99.90;;;;;;5071846;28;20044;-73
2022/01/26 00:40:00;;;;;;;64.40;31.55;;;3.20;99.90;;;;;;5081159;28;20044;-78
2022/01/26 00:42:28;;;;;;;66.95;32.85;;;3.20;99.90;;;;;;5073458;28;20040;-79
2022/01/26 00:44:54;;;;;;;66.38;33.50;;;3.20;99.90;;;;;;5054321;28;20076;-73
2022/01/26 00:47:19;;;;;;;64.10;31.55;;;3.20;99.90;;;;;;5055508;28;20195;-79
2022/01/26 00:49:45;;;;;;;66.80;33.00;;;3.20;99.90;;;;;;5071838;28;20063;-80
2022/01/26 00:52:14;;;;;;;63.58;29.98;;;3.20;99.90;;;;;;5072683;28;20044;-75
2022/01/26 00:54:40;;;;;;;65.90;32.70;;;3.20;99.90;;;;;;5072129;28;20105;-81
2022/01/26 00:57:05;;;;;;;65.03;31.25;;;3.20;99.90;;;;;;5071713;28;20135;-80
2022/01/26 00:59:31;;;;;;;64.05;30.25;;;3.20;99.90;;;;;;5055695;28;20048;-77
2022/01/26 01:01:57;;;;;;;66.63;32.47;;;3.20;99.90;;;;;;5072275;28;20066;-74
2022/01/26 01:04:23;;;;;;;71.70;30.88;;;3.10;99.90;;;;;;5054518;28;20459;-81
2022/01/26 01:06:55;;;;;;;65.63;33.03;;;3.20;99.90;;;;;;5054838;28;20051;-76
2022/01/26 01:09:23;;;;;;;64.28;30.55;;;3.10;99.90;;;;;;5072531;28;20048;-74
2022/01/26 01:11:55;;;;;;;69.75;32.47;;;3.10;99.90;;;;;;5074064;28;20052;-78
2022/01/26 01:14:22;;;;;;;71.00;31.80;;;3.10;99.90;;;;;;5076233;28;20048;-79
2022/01/26 01:16:47;;;;;;;65.20;32.42;;;3.10;99.90;;;;;;5075493;28;20048;-83
2022/01/26 01:19:31;;;;;;;69.20;31.05;;;3.10;99.90;;;;;;5075854;28;20048;-80
2022/01/26 01:22:28;;;;;;;67.43;31.45;;;3.00;99.90;;;;;;5082550;28;20534;-81
2022/01/26 01:30:11;;;;;;;64.38;30.67;;;3.10;99.90;;;;;;5090153;28;20875;-81
2022/01/26 01:32:51;;;;;;;71.28;32.25;;;3.10;99.90;;;;;;5092322;28;20559;-81
2022/01/26 01:35:17;;;;;;;66.03;31.17;;;3.00;99.90;;;;;;5082686;28;20037;-76
2022/01/26 01:37:43;;;;;;;62.80;29.73;;;3.10;99.90;;;;;;5065489;28;20072;-79
2022/01/26 01:40:09;;;;;;;70.07;31.98;;;3.00;99.90;;;;;;5063305;28;20040;-71
2022/01/26 01:42:35;;;;;;;66.78;31.20;;;3.00;99.90;;;;;;5075387;28;20076;-79
2022/01/26 01:45:01;;;;;;;68.40;32.33;;;3.00;99.90;;;;;;5058926;28;20052;-78
2022/01/26 01:47:27;;;;;;;75.07;34.58;;;3.00;99.90;;;;;;5074509;28;20040;-77
2022/01/26 01:49:52;;;;;;;70.32;32.67;;;3.00;99.90;;;;;;5058640;28;20076;-81
2022/01/26 01:52:18;;;;;;;71.40;32.90;;;3.00;99.90;;;;;;5057051;28;20036;-77
2022/01/26 01:54:50;;;;;;;70.95;33.63;;;3.00;99.90;;;;;;5074343;28;20566;-75
2022/01/26 01:57:22;;;;;;;70.10;32.75;;;3.00;99.90;;;;;;5058727;28;20048;-77
2022/01/26 01:59:48;;;;;;;71.70;32.90;;;3.00;99.90;;;;;;5074783;28;20109;-81
2022/01/26 02:02:13;;;;;;;69.13;32.42;;;3.00;99.90;;;;;;5074417;28;20036;-80
2022/01/26 02:04:39;;;;;;;75.68;34.17;;;3.00;99.90;;;;;;5074926;28;20040;-77
2022/01/26 02:07:06;;;;;;;81.00;34.65;;;3.00;99.90;;;;;;5074785;28;20510;-76
2022/01/26 02:09:32;;;;;;;81.40;32.60;;;3.00;99.90;;;;;;5080364;28;20040;-79
2022/01/26 02:12:00;;;;;;;79.18;33.92;;;3.10;99.90;;;;;;5057105;28;20089;-79
2022/01/26 02:14:31;;;;;;;73.15;34.70;;;3.00;99.90;;;;;;5057030;28;20048;-79
2022/01/26 02:17:13;;;;;;;75.07;32.67;;;3.00;99.90;;;;;;5063970;28;20033;-80
2022/01/26 02:49:38;;;;;;;67.60;28.08;;;3.10;99.90;;;;;;5068281;28;20087;-78
2022/01/26 02:54:49;;;;;;;63.22;27.92;;;3.00;99.90;;;;;;5074464;28;20118;-80
2022/01/26 02:57:45;;;;;;;68.32;28.92;;;3.00;99.90;;;;;;5069058;28;20044;-79
2022/01/26 03:02:57;;;;;;;66.20;28.17;;;3.00;99.90;;;;;;5073906;28;20131;-73
2022/01/26 03:05:29;;;;;;;65.32;28.75;;;3.00;99.90;;;;;;5070675;28;20049;-78
2022/01/26 03:08:00;;;;;;;65.60;28.77;;;3.00;99.90;;;;;;5073437;28;20466;-77
2022/01/26 03:10:45;;;;;;;59.05;27.73;;;3.00;99.90;;;;;;5070853;28;20402;-80
2022/01/26 03:13:16;;;;;;;61.58;26.42;;;3.00;99.90;;;;;;5073370;28;20055;-80
2022/01/26 03:15:50;;;;;;;62.40;27.08;;;3.00;99.90;;;;;;5073783;28;20075;-80
2022/01/26 03:21:25;;;;;;;65.70;27.13;;;2.90;99.90;;;;;;5031763;28;20041;-78
2022/01/26 03:34:52;;;;;;;66.15;27.90;;;2.90;99.90;;;;;;5032085;28;20044;-84
2022/01/26 03:37:21;;;;;;;67.93;29.27;;;2.90;99.90;;;;;;5056668;28;20404;-83
2022/01/26 03:39:47;;;;;;;59.90;28.35;;;2.90;99.90;;;;;;5061763;28;20032;-81
2022/01/26 03:42:15;;;;;;;64.40;29.27;;;2.90;99.90;;;;;;5047288;28;20051;-79
2022/01/26 03:44:42;;;;;;;65.65;27.90;;;2.90;99.90;;;;;;5073089;28;20405;-84
2022/01/26 03:47:09;;;;;;;63.80;27.85;;;2.90;99.90;;;;;;5072220;28;20564;-84
2022/01/26 03:49:35;;;;;;;62.63;28.00;;;2.90;99.90;;;;;;5056178;28;20541;-78
2022/01/26 03:52:02;;;;;;;64.43;27.95;;;2.90;99.90;;;;;;5061706;28;20044;-80
2022/01/26 03:54:28;;;;;;;68.43;29.27;;;2.90;99.90;;;;;;5047682;28;20058;-75
2022/01/26 03:56:54;;;;;;;58.38;26.05;;;3.00;99.90;;;;;;5089134;28;20044;-77
2022/01/26 03:59:19;;;;;;;62.15;26.70;;;2.90;99.90;;;;;;5064709;28;20489;-82
2022/01/26 04:01:45;;;;;;;66.25;28.20;;;2.90;99.90;;;;;;5066172;28;20044;-83
2022/01/26 04:04:11;;;;;;;61.33;27.67;;;2.90;99.90;;;;;;5072688;28;20385;-83
2022/01/26 04:06:37;;;;;;;59.72;26.15;;;2.90;99.90;;;;;;5071609;28;20050;-78
2022/01/26 04:09:10;;;;;;;52.30;24.90;;;2.90;99.90;;;;;;5071904;28;20040;-79
2022/01/26 04:11:43;;;;;;;51.35;23.38;;;2.90;99.90;;;;;;5050796;28;20063;-77
2022/01/26 04:14:15;;;;;;;54.65;24.95;;;3.00;99.90;;;;;;5054312;28;20051;-81
2022/01/26 04:16:42;;;;;;;55.45;25.05;;;2.90;99.90;;;;;;5055923;28;20123;-76
2022/01/26 04:19:08;;;;;;;50.40;22.95;;;2.90;99.90;;;;;;5072713;28;20115;-82
2022/01/26 04:21:47;;;;;;;57.92;24.70;;;2.90;99.90;;;;;;5055507;28;20040;-77
2022/01/26 04:24:19;;;;;;;51.50;23.13;;;3.00;99.90;;;;;;5072435;28;20419;-82
2022/01/26 04:26:51;;;;;;;54.47;25.08;;;2.90;99.90;;;;;;5055659;28;20096;-82
2022/01/26 04:29:23;;;;;;;53.00;24.13;;;2.90;99.90;;;;;;5072664;28;20056;-82
2022/01/26 04:31:49;;;;;;;56.95;24.40;;;3.00;99.90;;;;;;5055278;28;20036;-83
2022/01/26 04:34:15;;;;;;;54.75;24.20;;;3.10;99.90;;;;;;5055499;28;20067;-77
2022/01/26 04:36:51;;;;;;;49.25;23.52;;;2.90;99.90;;;;;;5071942;28;20106;-82
2022/01/26 04:39:22;;;;;;;55.33;23.95;;;2.90;99.90;;;;;;5055759;28;20044;-79
2022/01/26 04:44:26;;;;;;;54.83;23.90;;;2.90;99.90;;;;;;5071839;28;20052;-81
2022/01/26 04:46:53;;;;;;;49.30;23.30;;;2.90;99.90;;;;;;5075272;28;20040;-82
2022/01/26 04:49:19;;;;;;;52.88;24.17;;;2.90;99.90;;;;;;5071653;28;20059;-81
2022/01/26 04:51:44;;;;;;;48.95;21.88;;;2.90;99.90;;;;;;5089987;28;20475;-87
2022/01/26 04:54:10;;;;;;;54.90;23.58;;;3.00;99.90;;;;;;5056633;28;20041;-84
2022/01/26 04:56:36;;;;;;;53.40;23.10;;;2.90;99.90;;;;;;5072265;28;20136;-83
2022/01/26 04:59:02;;;;;;;51.97;23.17;;;2.90;99.90;;;;;;5072722;28;20036;-84
2022/01/26 05:01:28;;;;;;;52.33;22.25;;;2.90;99.90;;;;;;5073058;28;20044;-85
2022/01/26 05:03:53;;;;;;;56.42;23.73;;;2.80;99.90;;;;;;5065829;28;20049;-79
2022/01/26 05:06:19;;;;;;;53.97;23.52;;;2.80;99.90;;;;;;5036923;28;20053;-80
2022/01/26 05:08:45;;;;;;;52.85;22.85;;;2.90;99.90;;;;;;5055732;28;20051;-82
2022/01/26 05:11:15;;;;;;;51.58;22.45;;;2.80;99.90;;;;;;5056012;28;20036;-83
2022/01/26 05:13:41;;;;;;;50.85;22.63;;;2.80;99.90;;;;;;5055503;28;20044;-85
2022/01/26 05:16:09;;;;;;;52.95;22.00;;;2.80;99.90;;;;;;5072741;28;20044;-81
2022/01/26 05:18:35;;;;;;;50.08;22.40;;;2.80;99.90;;;;;;5071581;28;20041;-82
2022/01/26 05:21:00;;;;;;;49.55;22.52;;;2.80;99.90;;;;;;5055834;28;20049;-74
2022/01/26 05:23:26;;;;;;;45.92;20.60;;;2.80;99.90;;;;;;5055597;28;20128;-80
2022/01/26 05:25:52;;;;;;;44.95;20.70;;;2.80;99.90;;;;;;5051850;28;20063;-80
2022/01/26 05:28:18;;;;;;;52.20;21.65;;;2.80;99.90;;;;;;5070273;28;20546;-83
2022/01/26 05:30:43;;;;;;;50.33;20.77;;;2.80;99.90;;;;;;5072909;28;20160;-73
2022/01/26 05:33:09;;;;;;;48.97;21.58;;;2.80;99.90;;;;;;5071477;28;20048;-83
2022/01/26 05:35:35;;;;;;;50.05;20.73;;;2.80;99.90;;;;;;5072411;28;20082;-83
2022/01/26 05:38:01;;;;;;;47.40;20.75;;;2.80;99.90;;;;;;5054978;28;20074;-83
2022/01/26 05:40:26;;;;;;;49.50;22.95;;;2.80;99.90;;;;;;5071523;28;20040;-78
2022/01/26 05:42:52;;;;;;;46.72;20.25;;;2.80;99.90;;;;;;5071778;28;20052;-81
2022/01/26 05:45:30;;;;;;;41.65;19.67;;;2.80;99.90;;;;;;5071367;28;20033;-82
2022/01/26 05:47:56;;;;;;;45.80;19.63;;;2.90;99.90;;;;;;5079173;28;20051;-78
2022/01/26 05:50:22;;;;;;;46.55;20.52;;;2.80;99.90;;;;;;5075783;28;20388;-79
2022/01/26 05:52:48;;;;;;;46.60;21.05;;;2.80;99.90;;;;;;5074648;28;20544;-80
2022/01/26 05:55:14;;;;;;;45.13;19.42;;;2.80;99.90;;;;;;5082123;28;20051;-80
2022/01/26 05:57:40;;;;;;;44.35;21.00;;;2.90;99.90;;;;;;5073768;28;20496;-73
2022/01/26 06:00:06;;;;;;;47.75;20.40;;;2.90;99.90;;;;;;5092301;28;20040;-72
2022/01/26 06:02:33;;;;;;;43.25;19.92;;;2.80;99.90;;;;;;5075222;28;20055;-80
2022/01/26 06:04:58;;;;;;;42.83;19.73;;;2.90;99.90;;;;;;5073988;28;20044;-72
2022/01/26 06:07:24;;;;;;;42.88;20.38;;;2.80;99.90;;;;;;5089708;28;20512;-80
2022/01/26 06:09:50;;;;;;;44.58;20.48;;;2.80;99.90;;;;;;5071720;28;20040;-80
2022/01/26 06:12:15;;;;;;;41.70;19.65;;;2.90;99.90;;;;;;5073924;28;20048;-79
2022/01/26 06:14:41;;;;;;;42.95;19.33;;;2.80;99.90;;;;;;5073728;28;20751;-79
2022/01/26 06:17:07;;;;;;;42.13;19.33;;;2.80;99.90;;;;;;5058272;28;20083;-78
2022/01/26 06:19:33;;;;;;;47.72;20.33;;;2.90;99.90;;;;;;5058250;28;20036;-79
2022/01/26 06:21:59;;;;;;;48.03;21.15;;;2.80;99.90;;;;;;5073787;28;20130;-80
2022/01/26 06:24:24;;;;;;;47.70;20.27;;;2.80;99.90;;;;;;5074804;28;20143;-77
2022/01/26 06:26:50;;;;;;;50.38;21.10;;;2.80;99.90;;;;;;5057618;28;20382;-81
2022/01/26 06:29:16;;;;;;;47.53;21.25;;;2.80;99.90;;;;;;5072887;28;20051;-80
2022/01/26 06:31:42;;;;;;;45.88;22.98;;;2.90;99.90;;;;;;5070756;28;20056;-83
2022/01/26 06:34:11;;;;;;;46.80;21.70;;;2.90;99.90;;;;;;5074307;28;20508;-73
2022/01/26 06:36:44;;;;;;;48.50;21.90;;;2.90;99.90;;;;;;5073772;28;20052;-78
2022/01/26 06:39:13;;;;;;;50.88;22.67;;;2.90;99.90;;;;;;5092268;28;20040;-83
2022/01/26 06:41:47;;;;;;;42.55;20.35;;;2.90;99.90;;;;;;5074047;28;20089;-76
2022/01/26 06:44:16;;;;;;;43.80;21.67;;;2.90;99.90;;;;;;5074137;28;20047;-83
2022/01/26 06:46:55;;;;;;;51.67;22.42;;;2.90;99.90;;;;;;5074266;28;20507;-83
2022/01/26 06:51:53;;;;;;;50.30;23.77;;;2.90;99.90;;;;;;5074105;28;20135;-80
2022/01/26 06:54:19;;;;;;;55.63;26.08;;;2.90;99.90;;;;;;5074282;28;20068;-82
2022/01/26 06:56:45;;;;;;;52.78;24.98;;;2.90;99.90;;;;;;5062226;28;20102;-81
2022/01/26 06:59:11;;;;;;;56.15;28.45;;;3.00;99.90;;;;;;5073584;28;20044;-81
2022/01/26 07:01:38;;;;;;;62.78;29.08;;;2.90;99.90;;;;;;5074008;28;20036;-81
2022/01/26 07:04:03;;;;;;;53.75;28.40;;;3.00;99.90;;;;;;5073089;28;20488;-82
2022/01/26 07:06:29;;;;;;;58.20;29.58;;;2.90;99.90;;;;;;5074020;28;20043;-80
2022/01/26 07:08:55;;;;;;;63.25;30.30;;;3.00;99.90;;;;;;5072810;28;20048;-74
2022/01/26 07:11:20;;;;;;;61.70;32.50;;;3.00;99.90;;;;;;5073185;28;20081;-77
2022/01/26 07:13:46;;;;;;;62.28;32.30;;;3.00;99.90;;;;;;5072345;28;20066;-79
2022/01/26 07:21:41;;;;;;;65.20;32.40;;;3.10;99.90;;;;;;5090347;28;20051;-78
2022/01/26 07:24:06;;;;;;;61.50;32.53;;;3.10;99.90;;;;;;5072040;28;20055;-78
2022/01/26 07:26:32;;;;;;;68.90;32.95;;;3.10;99.90;;;;;;5073744;28;20039;-72
2022/01/26 07:29:02;;;;;;;75.95;38.45;;;3.10;99.90;;;;;;5072764;28;20037;-81
2022/01/26 07:31:28;;;;;;;66.80;35.17;;;3.10;99.90;;;;;;5073401;28;20052;-73
2022/01/26 07:33:55;;;;;;;67.63;33.47;;;3.10;99.90;;;;;;5072733;28;20404;-80
2022/01/26 07:36:22;;;;;;;74.55;38.00;;;3.20;99.90;;;;;;5073490;28;20644;-79
2022/01/26 07:38:50;;;;;;;80.32;40.25;;;3.20;99.90;;;;;;5055276;28;20036;-82
2022/01/26 07:41:16;;;;;;;82.38;41.38;;;3.20;99.90;;;;;;5057070;28;20043;-77
2022/01/26 07:43:42;;;;;;;85.20;42.55;;;3.20;99.90;;;;;;5072677;28;20101;-74
2022/01/26 07:46:09;;;;;;;85.53;44.13;;;3.30;99.90;;;;;;5055486;28;20044;-83
2022/01/26 07:48:35;;;;;;;84.50;42.78;;;3.20;99.90;;;;;;5072820;28;20113;-86
2022/01/26 07:51:01;;;;;;;90.65;45.70;;;3.20;99.90;;;;;;5056180;28;20087;-74
2022/01/26 07:53:27;;;;;;;91.05;45.78;;;3.30;99.90;;;;;;5071176;28;20083;-80
2022/01/26 07:55:52;;;;;;;85.65;45.33;;;3.30;99.90;;;;;;5072235;28;20044;-82
2022/01/26 07:58:20;;;;;;;90.93;44.15;;;3.30;99.90;;;;;;5052907;28;20369;-73
2022/01/26 08:00:46;;;;;;;89.35;47.33;;;3.30;99.90;;;;;;5072291;28;20044;-78
2022/01/26 08:03:11;;;;;;;91.00;46.03;;;3.30;99.90;;;;;;5073230;28;20508;-80
2022/01/26 08:05:37;;;;;;;93.53;48.15;;;3.40;99.90;;;;;;5073096;28;20072;-81
2022/01/26 08:08:03;;;;;;;89.20;46.40;;;3.40;99.90;;;;;;5071620;28;20088;-78
2022/01/26 08:10:29;;;;;;;94.50;49.20;;;3.40;99.90;;;;;;5052586;28;20048;-79
2022/01/26 08:12:54;;;;;;;95.05;48.55;;;3.40;99.90;;;;;;5071851;28;20404;-79
2022/01/26 08:15:20;;;;;;;92.50;48.83;;;3.40;99.90;;;;;;5072514;28;20083;-81
2022/01/26 08:17:46;;;;;;;93.53;49.40;;;3.40;99.90;;;;;;5071224;28;20091;-75
2022/01/26 08:20:11;;;;;;;95.63;51.28;;;3.50;99.90;;;;;;5072117;28;20043;-80
2022/01/26 08:22:39;;;;;;;96.07;51.05;;;3.50;99.90;;;;;;5071045;28;20047;-78
2022/01/26 08:27:44;;;;;;;99.75;49.38;;;3.40;99.90;;;;;;5450347;22;20053;-77
2022/01/26 08:30:14;;;;;;;95.32;49.08;;;3.50;99.90;;;;;;5026391;28;20056;-76
2022/01/26 08:32:40;;;;;;;99.47;52.08;;;3.50;99.90;;;;;;5026348;28;20508;-74
2022/01/26 08:35:06;;;;;;;94.53;50.17;;;3.50;99.90;;;;;;5033532;28;20055;-73
2022/01/26 08:37:32;;;;;;;100.60;51.92;;;3.50;99.90;;;;;;5032295;28;20049;-74
2022/01/26 08:39:58;;;;;;;94.20;49.22;;;3.50;99.90;;;;;;5029611;28;20049;-73
2022/01/26 08:42:23;;;;;;;99.22;52.00;;;3.50;99.90;;;;;;5028360;28;20057;-74
2022/01/26 08:44:49;;;;;;;101.07;51.20;;;3.60;99.90;;;;;;5028572;28;20523;-73
2022/01/26 08:47:15;;;;;;;99.35;49.88;;;3.60;99.90;;;;;;5012877;28;20045;-73
2022/01/26 08:49:40;;;;;;;99.80;50.20;;;3.60;99.90;;;;;;5014532;28;20045;-74
2022/01/26 08:52:06;;;;;;;98.05;49.80;;;3.60;99.90;;;;;;5032340;28;20471;-73
2022/01/26 08:54:32;;;;;;;102.22;48.03;;;3.70;99.90;;;;;;5029089;28;20152;-73
2022/01/26 08:56:58;;;;;;;104.22;49.10;;;3.70;99.90;;;;;;5011429;28;20408;-73
2022/01/26 08:59:24;;;;;;;98.88;50.92;;;3.70;99.90;;;;;;5028710;28;20072;-73
2022/01/26 09:01:50;;;;;;;93.47;48.97;;;3.70;99.90;;;;;;5011810;28;20052;-74
2022/01/26 09:04:16;;;;;;;104.57;49.40;;;3.80;99.90;;;;;;5012162;28;20037;-74
2022/01/26 09:06:54;;;;;;;101.18;50.15;;;3.80;99.90;;;;;;5011703;28;20053;-73
2022/01/26 09:09:22;;;;;;;101.38;51.30;;;3.80;99.90;;;;;;5046583;28;20056;-73
2022/01/26 09:11:49;;;;;;;104.50;50.85;;;3.80;99.90;;;;;;5032673;28;20061;-73
2022/01/26 09:14:21;;;;;;;99.85;49.15;;;3.80;99.90;;;;;;5028835;28;20064;-74
2022/01/26 09:16:53;;;;;;;99.70;49.90;;;3.80;99.90;;;;;;5011991;28;20516;-73
2022/01/26 09:19:27;;;;;;;94.18;46.67;;;3.80;99.90;;;;;;5027359;28;20081;-73
2022/01/26 09:21:57;;;;;;;94.68;48.28;;;3.90;99.90;;;;;;5028470;28;20053;-73
2022/01/26 09:24:26;;;;;;;100.32;49.63;;;4.00;99.90;;;;;;5036317;28;20616;-73
2022/01/26 09:26:51;;;;;;;96.70;48.00;;;4.00;99.90;;;;;;5012036;28;20045;-73
2022/01/26 09:29:17;;;;;;;96.75;49.45;;;4.00;99.90;;;;;;4994405;28;20439;-73
2022/01/26 09:31:44;;;;;;;88.32;44.47;;;4.00;99.90;;;;;;5033830;28;20068;-73
2022/01/26 09:34:09;;;;;;;96.28;46.88;;;4.00;99.90;;;;;;5031534;28;20084;-73
2022/01/26 09:36:35;;;;;;;91.70;47.85;;;4.00;99.90;;;;;;5038373;28;20037;-73
2022/01/26 09:39:01;;;;;;;90.60;44.70;;;4.00;99.90;;;;;;5035453;28;20416;-73
2022/01/26 09:41:27;;;;;;;91.40;45.30;;;4.00;99.90;;;;;;5032707;28;20050;-73
2022/01/26 09:43:52;;;;;;;77.03;41.70;;;4.10;99.90;;;;;;5029564;28;21639;-73
2022/01/26 09:46:18;;;;;;;80.07;39.30;;;4.10;99.90;;;;;;5035197;28;20045;-73
2022/01/26 09:48:44;;;;;;;76.25;42.25;;;4.10;99.90;;;;;;5032680;28;20077;-74
2022/01/26 09:51:14;;;;;;;72.60;39.50;;;4.10;99.90;;;;;;5032170;28;20038;-73
2022/01/26 09:53:39;;;;;;;66.65;36.60;;;4.20;99.90;;;;;;5031035;28;20045;-73
2022/01/26 09:56:05;;;;;;;61.40;33.92;;;4.30;99.90;;;;;;5032492;28;20570;-74
2022/01/26 09:58:32;;;;;;;59.95;32.85;;;4.30;99.90;;;;;;5031754;28;20051;-73
2022/01/26 10:01:04;;;;;;;60.72;34.00;;;4.40;99.90;;;;;;5030537;28;20073;-73
2022/01/26 10:03:34;;;;;;;66.70;34.63;;;4.40;99.90;;;;;;5031416;28;20045;-73
2022/01/26 10:06:01;;;;;;;62.08;34.50;;;4.40;99.90;;;;;;5030040;28;20041;-74
2022/01/26 10:17:20;;;;;;;65.07;36.78;;;4.50;99.90;;;;;;5031002;28;20050;-73
2022/01/26 10:19:35;;;;;;;69.22;36.88;;;4.50;99.90;;;;;;5031411;28;20452;-73
2022/01/26 10:22:01;;;;;;;65.20;38.25;;;4.50;99.90;;;;;;5012364;28;20053;-74
2022/01/26 10:24:31;;;;;;;64.50;37.03;;;4.50;99.90;;;;;;5029660;28;20085;-73
2022/01/26 10:26:59;;;;;;;66.28;35.75;;;4.60;99.90;;;;;;5029014;28;20444;-76
2022/01/26 10:29:26;;;;;;;65.00;35.90;;;4.60;99.90;;;;;;5013544;28;20144;-72
2022/01/26 10:31:52;;;;;;;63.58;35.85;;;4.60;99.90;;;;;;5029723;28;20044;-73
2022/01/26 10:34:22;;;;;;;61.92;34.35;;;4.60;99.90;;;;;;5014305;28;20034;-74
2022/01/26 10:37:00;;;;;;;67.28;36.85;;;4.60;99.90;;;;;;5023033;28;20477;-72
2022/01/26 10:39:42;;;;;;;64.90;36.35;;;4.60;99.90;;;;;;5010685;28;20547;-74
2022/01/26 10:42:17;;;;;;;62.22;34.92;;;4.60;99.90;;;;;;5029614;28;20056;-74
2022/01/26 10:45:12;;;;;;;63.17;35.08;;;4.60;99.90;;;;;;5012846;28;20104;-74
2022/01/26 10:47:39;;;;;;;64.68;34.65;;;4.60;99.90;;;;;;5025476;28;20050;-74
2022/01/26 10:53:18;;;;;;;59.72;33.90;;;4.60;99.90;;;;;;5030167;28;20057;-74
2022/01/26 10:55:45;;;;;;;64.55;35.53;;;4.60;99.90;;;;;;5002479;28;20090;-74
2022/01/26 10:58:16;;;;;;;55.85;32.63;;;4.60;99.90;;;;;;5030096;28;20057;-74
2022/01/26 11:00:42;;;;;;;59.63;35.10;;;4.60;99.90;;;;;;5009313;28;20489;-74
2022/01/26 11:03:08;;;;;;;65.75;35.63;;;4.60;99.90;;;;;;5027518;28;20049;-74
2022/01/26 11:05:34;;;;;;;60.38;33.97;;;4.60;99.90;;;;;;5029601;28;20037;-74
2022/01/26 11:08:01;;;;;;;62.80;34.35;;;4.60;99.90;;;;;;5013792;28;20075;-74
2022/01/26 11:10:38;;;;;;;65.72;34.85;;;4.60;99.90;;;;;;5028917;28;20106;-74
2022/01/26 11:13:05;;;;;;;57.83;33.53;;;4.70;99.90;;;;;;5030164;28;20050;-74
2022/01/26 11:15:31;;;;;;;57.22;32.38;;;4.70;99.90;;;;;;5025988;28;20045;-74
2022/01/26 11:18:09;;;;;;;65.32;33.65;;;4.60;99.80;;;;;;5012605;28;20770;-74
2022/01/26 11:20:50;;;;;;;58.40;33.15;;;4.70;99.90;;;;;;5028929;28;20497;-74
2022/01/26 11:23:19;;;;;;;60.17;31.92;;;4.60;99.90;;;;;;5028315;28;20045;-74
2022/01/26 11:25:47;;;;;;;60.60;33.50;;;4.70;99.90;;;;;;5012317;28;20053;-74
2022/01/26 11:28:22;;;;;;;58.33;33.33;;;4.70;99.70;;;;;;5013869;28;20129;-74
2022/01/26 11:30:50;;;;;;;58.42;33.80;;;4.70;99.80;;;;;;5027509;28;20061;-74
2022/01/26 11:33:18;;;;;;;61.45;35.95;;;4.70;99.70;;;;;;5027451;28;20037;-74
2022/01/26 11:35:48;;;;;;;60.75;33.58;;;4.70;99.70;;;;;;5012491;28;20041;-74
2022/01/26 11:46:32;;;;;;;58.28;33.40;;;4.70;99.70;;;;;;5022087;28;20053;-74
2022/01/26 11:49:10;;;;;;;58.47;33.47;;;4.70;99.80;;;;;;5028549;28;20045;-75
2022/01/26 11:51:45;;;;;;;58.25;33.67;;;4.70;99.80;;;;;;5013816;28;20077;-74
2022/01/26 11:54:17;;;;;;;54.40;32.13;;;4.70;99.90;;;;;;5027039;28;20518;-73
2022/01/26 11:57:04;;;;;;;62.80;35.03;;;4.80;99.80;;;;;;5012544;28;20445;-74
2022/01/26 11:59:33;;;;;;;59.33;35.42;;;4.70;99.80;;;;;;5010974;28;20164;-74
2022/01/26 12:02:18;;;;;;;64.70;35.30;;;4.70;99.70;;;;;;5016202;28;20535;-74
2022/01/26 12:04:47;;;;;;;58.75;34.53;;;4.80;99.90;;;;;;5029170;28;20095;-74
2022/01/26 12:07:22;;;;;;;57.67;34.05;;;4.70;99.90;;;;;;5028292;28;20038;-74
2022/01/26 12:09:48;;;;;;;59.90;34.47;;;4.80;99.90;;;;;;5012029;28;20042;-74
2022/01/26 12:12:23;;;;;;;57.55;32.92;;;4.80;99.90;;;;;;5012972;28;20037;-74
2022/01/26 12:15:09;;;;;;;57.80;32.58;;;4.80;99.90;;;;;;5015669;28;20046;-74
2022/01/26 12:17:40;;;;;;;55.75;31.80;;;4.80;99.90;;;;;;5028609;28;20060;-74
2022/01/26 12:45:21;;;;;;;58.60;30.88;;;4.90;99.90;;;;;;5049263;28;20091;-74
2022/01/26 12:47:51;;;;;;;57.55;30.67;;;4.90;99.90;;;;;;5048520;28;20053;-74
2022/01/26 12:50:18;;;;;;;58.88;32.58;;;4.90;99.90;;;;;;5048778;28;20060;-74
2022/01/26 12:52:48;;;;;;;59.97;31.90;;;4.90;99.90;;;;;;5048981;28;20164;-74
2022/01/26 12:55:29;;;;;;;59.67;32.60;;;4.90;99.90;;;;;;5033555;28;20048;-74
2022/01/26 12:57:55;;;;;;;57.85;31.42;;;4.90;99.90;;;;;;5032045;28;20460;-74
2022/01/26 13:00:24;;;;;;;60.33;31.60;;;4.90;99.90;;;;;;5026192;28;20037;-74
2022/01/26 13:02:51;;;;;;;57.85;31.70;;;4.90;99.90;;;;;;5011522;28;20069;-74
2022/01/26 13:05:25;;;;;;;53.47;31.05;;;4.80;99.90;;;;;;5029439;28;20057;-74
2022/01/26 13:08:05;;;;;;;58.35;31.20;;;4.80;99.90;;;;;;5031301;28;20072;-74
2022/01/26 13:10:31;;;;;;;55.53;30.27;;;4.80;99.90;;;;;;5032479;28;20059;-74
2022/01/26 13:13:09;;;;;;;55.75;30.55;;;4.80;99.90;;;;;;5032342;28;20088;-74
2022/01/26 13:15:45;;;;;;;55.53;30.77;;;4.80;99.90;;;;;;5016338;28;20042;-74
2022/01/26 13:21:29;;;;;;;56.50;31.05;;;4.80;99.90;;;;;;5032636;28;20128;-74
2022/01/26 13:24:08;;;;;;;53.35;28.95;;;4.80;99.90;;;;;;5032738;28;20057;-74
2022/01/26 13:26:47;;;;;;;55.47;29.83;;;4.80;99.90;;;;;;5032898;28;20041;-74
2022/01/26 13:29:23;;;;;;;52.03;30.88;;;4.80;99.90;;;;;;5032408;28;20057;-73
2022/01/26 13:34:57;;;;;;;57.80;32.15;;;4.80;99.90;;;;;;5032848;28;20482;-74
2022/01/26 13:51:19;;;;;;;50.15;30.23;;;5.10;99.90;;;;;;5032012;28;20509;-74
2022/01/26 13:53:55;;;;;;;55.30;31.23;;;5.10;99.90;;;;;;5031344;28;20421;-74
2022/01/26 13:56:50;;;;;;;57.08;32.67;;;5.10;99.90;;;;;;5015823;28;20050;-74
2022/01/26 14:01:49;;;;;;;54.97;32.90;;;5.10;99.90;;;;;;5031398;28;20150;-74
2022/01/26 14:04:16;;;;;;;56.17;32.58;;;5.20;99.90;;;;;;5032093;28;20081;-74
2022/01/26 14:06:43;;;;;;;56.20;32.20;;;5.20;99.90;;;;;;5031150;28;20124;-74
2022/01/26 14:09:09;;;;;;;54.17;31.67;;;5.20;99.90;;;;;;5048425;28;20051;-74
2022/01/26 14:11:35;;;;;;;52.38;33.47;;;5.30;99.90;;;;;;5051616;28;20151;-74
2022/01/26 14:14:01;;;;;;;59.35;35.33;;;5.30;99.90;;;;;;5050427;28;20135;-74
2022/01/26 14:16:28;;;;;;;85.25;49.40;;;5.30;99.90;;;;;;5051854;28;20505;-74
2022/01/26 14:19:26;;;;;;;96.20;50.83;;;5.40;99.90;;;;;;5050190;28;20051;-75
2022/01/26 14:27:25;;;;;;;82.90;46.85;;;5.40;99.90;;;;;;5010784;28;20140;-74
2022/01/26 14:40:49;;;;;;;82.78;42.53;;;5.40;99.90;;;;;;5051298;28;20053;-74
2022/01/26 14:50:57;;;;;;;58.95;34.05;;;5.40;99.90;;;;;;5050585;28;20497;-74
2022/01/26 15:00:09;;;;;;;49.25;29.77;;;5.40;99.90;;;;;;5030098;28;20080;-75
2022/01/26 15:19:30;;;;;;;55.47;26.80;;;5.30;99.90;;;;;;5029628;28;20046;-74
2022/01/26 15:40:47;;;;;;;49.45;29.10;;;5.30;99.90;;;;;;5029949;28;20053;-74
2022/01/26 15:48:54;;;;;;;50.85;27.95;;;5.30;99.90;;;;;;5035869;28;20516;-74
2022/01/26 16:04:22;;;;;;;49.85;28.00;;;5.30;99.90;;;;;;5028666;28;20041;-76
2022/01/26 17:12:31;;;;;;;51.83;29.63;;;5.50;99.90;;;;;;5031382;28;20053;-74
2022/01/26 18:17:18;;;;;;;35.38;21.58;;;5.70;99.90;;;;;;5030776;28;20051;-76
2022/01/26 18:49:13;;;;;;;31.40;19.67;;;5.80;99.90;;;;;;5030221;28;20410;-73
2022/01/26 18:51:42;;;;;;;37.10;20.08;;;5.80;99.90;;;;;;5013394;28;20048;-76
2022/01/26 18:54:10;;;;;;;28.40;18.88;;;5.80;99.90;;;;;;5013050;28;20041;-75
2022/01/26 18:56:36;;;;;;;29.48;19.30;;;5.80;99.90;;;;;;5030815;28;20409;-76
2022/01/26 18:59:05;;;;;;;29.35;19.00;;;6.00;99.90;;;;;;5013756;28;20041;-75
2022/01/26 19:01:32;;;;;;;28.75;19.48;;;5.80;99.90;;;;;;5029605;28;20124;-75
2022/01/26 19:03:57;;;;;;;33.55;20.20;;;5.90;99.90;;;;;;5012612;28;20080;-75
2022/01/26 19:06:23;;;;;;;37.75;20.95;;;5.80;99.90;;;;;;5014515;28;20042;-75
2022/01/26 19:08:49;;;;;;;34.60;20.00;;;5.80;99.90;;;;;;5028630;28;20045;-75
2022/01/26 19:11:16;;;;;;;36.20;20.23;;;5.80;99.90;;;;;;5013397;28;20044;-76
2022/01/26 19:13:45;;;;;;;38.42;23.63;;;5.80;99.90;;;;;;5030376;28;20049;-75
2022/01/26 19:19:05;;;;;;;40.10;25.63;;;5.80;99.90;;;;;;5029160;28;20033;-76
2022/01/26 19:24:30;;;;;;;44.83;28.70;;;5.70;99.90;;;;;;5028765;28;20053;-76